createdAt,value
2023-04-28T00:01:14.346Z,6.20
2023-04-28T00:03:41.519Z,5.50
2023-04-28T00:06:08.174Z,6.17
2023-04-28T00:08:37.046Z,6.17
2023-04-28T00:11:04.019Z,5.43
2023-04-28T00:13:31.097Z,6.20
2023-04-28T00:15:57.674Z,5.83
2023-04-28T00:18:24.234Z,5.57
2023-04-28T00:20:50.999Z,5.90
2023-04-28T00:23:17.488Z,5.77
2023-04-28T00:25:44.000Z,5.30
2023-04-28T00:28:11.589Z,5.77
2023-04-28T00:30:38.364Z,5.60
2023-04-28T00:33:04.904Z,5.70
2023-04-28T00:35:32.752Z,6.30
2023-04-28T00:37:59.369Z,6.53
2023-04-28T00:40:32.856Z,6.53
2023-04-28T00:42:59.374Z,6.07
2023-04-28T00:45:25.984Z,6.47
2023-04-28T00:47:52.650Z,6.47
2023-04-28T00:50:19.200Z,6.37
2023-04-28T00:52:45.827Z,6.10
2023-04-28T00:55:15.399Z,6.73
2023-04-28T00:57:42.414Z,6.40
2023-04-28T01:00:09.767Z,6.63
2023-04-28T01:02:36.929Z,6.60
2023-04-28T01:05:03.967Z,7.50
2023-04-28T01:07:30.976Z,7.17
2023-04-28T01:09:57.467Z,7.80
2023-04-28T01:12:23.976Z,7.60
2023-04-28T01:14:50.615Z,7.43
2023-04-28T01:17:19.835Z,7.33
2023-04-28T01:19:46.319Z,7.23
2023-04-28T01:22:15.584Z,7.13
2023-04-28T01:24:42.828Z,7.50
2023-04-28T01:27:09.408Z,7.37
2023-04-28T01:29:36.356Z,7.10
2023-04-28T01:32:02.920Z,7.37
2023-04-28T01:34:29.497Z,7.00
2023-04-28T01:36:56.581Z,7.77
2023-04-28T01:39:23.444Z,7.60
2023-04-28T01:41:49.917Z,8.07
2023-04-28T01:44:16.516Z,7.43
2023-04-28T01:46:43.104Z,8.27
2023-04-28T01:49:09.662Z,7.73
2023-04-28T01:51:36.191Z,8.13
2023-04-28T01:54:02.734Z,7.97
2023-04-28T01:56:29.201Z,7.27
2023-04-28T01:58:55.709Z,8.43
2023-04-28T02:01:22.256Z,8.27
2023-04-28T02:03:49.374Z,7.43
2023-04-28T02:06:16.486Z,8.63
2023-04-28T02:08:42.970Z,7.87
2023-04-28T02:11:09.451Z,8.43
2023-04-28T02:13:36.342Z,8.43
2023-04-28T02:16:02.958Z,8.57
2023-04-28T02:18:29.777Z,8.87
2023-04-28T02:20:56.280Z,8.47
2023-04-28T02:23:25.008Z,8.83
2023-04-28T02:26:00.294Z,8.47
2023-04-28T02:28:26.776Z,9.30
2023-04-28T02:30:53.537Z,9.27
2023-04-28T02:33:20.454Z,8.33
2023-04-28T02:35:47.378Z,9.07
2023-04-28T02:38:13.880Z,8.87
2023-04-28T02:40:40.357Z,8.50
2023-04-28T02:43:07.245Z,8.83
2023-04-28T02:45:33.809Z,9.03
2023-04-28T02:48:03.913Z,8.93
2023-04-28T02:50:33.334Z,8.00
2023-04-28T02:53:00.292Z,8.50
2023-04-28T02:55:26.783Z,8.70
2023-04-28T02:57:53.268Z,8.80
2023-04-28T03:00:19.818Z,8.83
2023-04-28T03:02:46.739Z,9.10
2023-04-28T03:05:13.516Z,9.27
2023-04-28T03:07:40.109Z,9.83
2023-04-28T03:10:07.031Z,9.70
2023-04-28T03:12:34.522Z,9.07
2023-04-28T03:15:01.971Z,9.30
2023-04-28T03:17:28.504Z,9.13
2023-04-28T03:19:55.245Z,10.20
2023-04-28T03:22:21.738Z,9.47
2023-04-28T03:24:48.551Z,10.17
2023-04-28T03:27:15.104Z,10.17
2023-04-28T03:29:41.617Z,9.47
2023-04-28T03:32:08.478Z,10.33
2023-04-28T03:34:35.288Z,9.87
2023-04-28T03:37:01.771Z,9.00
2023-04-28T03:39:28.274Z,8.97
2023-04-28T03:41:54.840Z,9.70
2023-04-28T03:44:21.800Z,9.50
2023-04-28T03:46:48.902Z,9.57
2023-04-28T03:49:15.803Z,9.90
2023-04-28T03:51:42.317Z,10.07
2023-04-28T03:54:08.918Z,9.20
2023-04-28T03:56:35.572Z,8.80
2023-04-28T03:59:02.140Z,9.07
2023-04-28T04:01:28.663Z,8.70
2023-04-28T04:03:57.502Z,8.97
2023-04-28T04:06:24.561Z,8.70
2023-04-28T04:08:51.065Z,8.83
2023-04-28T04:11:17.602Z,8.43
2023-04-28T04:13:45.006Z,9.07
2023-04-28T04:16:11.758Z,8.60
2023-04-28T04:18:38.312Z,7.77
2023-04-28T04:21:05.566Z,8.10
2023-04-28T04:23:32.060Z,8.83
2023-04-28T04:25:58.540Z,8.30
2023-04-28T04:28:25.205Z,8.03
2023-04-28T04:30:51.794Z,7.80
2023-04-28T04:33:18.294Z,8.03
2023-04-28T04:35:44.828Z,7.60
2023-04-28T04:38:11.398Z,7.73
2023-04-28T04:40:37.870Z,7.47
2023-04-28T04:43:04.376Z,6.80
2023-04-28T04:45:31.353Z,7.47
2023-04-28T04:47:58.290Z,7.73
2023-04-28T04:50:25.392Z,7.47
2023-04-28T04:52:56.712Z,8.80
2023-04-28T04:55:23.325Z,7.10
2023-04-28T04:57:49.862Z,7.50
2023-04-28T05:00:17.221Z,6.97
2023-04-28T05:02:43.831Z,7.70
2023-04-28T05:05:20.625Z,7.30
2023-04-28T05:07:48.203Z,6.90
2023-04-28T05:10:14.664Z,6.73
2023-04-28T05:12:41.270Z,7.90
2023-04-28T05:15:08.258Z,7.40
2023-04-28T05:17:37.402Z,7.63
2023-04-28T05:20:03.987Z,7.50
2023-04-28T05:22:31.473Z,7.27
2023-04-28T05:24:57.985Z,7.87
2023-04-28T05:27:24.489Z,8.00
2023-04-28T05:29:50.968Z,7.50
2023-04-28T05:32:17.556Z,7.40
2023-04-28T05:34:44.564Z,7.60
2023-04-28T05:37:11.903Z,7.93
2023-04-28T05:39:38.450Z,8.23
2023-04-28T05:42:05.339Z,7.60
2023-04-28T05:44:32.217Z,7.50
2023-04-28T05:46:58.769Z,7.43
2023-04-28T05:49:25.357Z,7.57
2023-04-28T05:51:52.767Z,7.23
2023-04-28T05:54:19.406Z,7.67
2023-04-28T05:56:46.081Z,7.77
2023-04-28T05:59:12.590Z,8.00
2023-04-28T06:01:39.121Z,7.10
2023-04-28T06:04:05.945Z,7.97
2023-04-28T06:06:34.265Z,7.90
2023-04-28T06:09:00.789Z,8.37
2023-04-28T06:11:27.320Z,7.50
2023-04-28T06:13:53.827Z,8.43
2023-04-28T06:16:20.439Z,9.60
2023-04-28T06:18:49.625Z,11.60
2023-04-28T06:21:17.084Z,10.20
2023-04-28T06:23:43.666Z,8.43
2023-04-28T06:26:10.263Z,8.57
2023-04-28T06:28:36.760Z,8.23
2023-04-28T06:31:03.755Z,7.47
2023-04-28T06:33:30.380Z,7.57
2023-04-28T06:35:56.904Z,7.40
2023-04-28T06:38:23.413Z,7.77
2023-04-28T06:40:49.998Z,7.97
2023-04-28T06:43:16.567Z,8.13
2023-04-28T06:45:43.134Z,7.83
2023-04-28T06:48:10.314Z,8.63
2023-04-28T06:50:37.441Z,7.53
2023-04-28T06:53:03.946Z,7.37
2023-04-28T06:55:30.739Z,7.27
2023-04-28T06:57:57.342Z,8.27
2023-04-28T07:00:24.057Z,7.67
2023-04-28T07:02:50.746Z,7.23
2023-04-28T07:05:17.408Z,7.13
2023-04-28T07:07:43.999Z,7.73
2023-04-28T07:10:11.790Z,7.13
2023-04-28T07:12:38.295Z,7.90
2023-04-28T07:15:05.002Z,6.87
2023-04-28T07:17:31.841Z,7.23
2023-04-28T07:19:58.458Z,6.70
2023-04-28T07:22:25.061Z,6.27
2023-04-28T07:24:51.541Z,5.73
2023-04-28T07:27:18.470Z,6.10
2023-04-28T07:29:47.476Z,6.30
2023-04-28T07:32:14.054Z,5.97
2023-04-28T07:34:42.837Z,5.50
2023-04-28T07:37:09.885Z,6.03
2023-04-28T07:39:36.775Z,5.70
2023-04-28T07:42:03.716Z,6.13
2023-04-28T07:44:30.901Z,6.23
2023-04-28T07:46:57.507Z,6.13
2023-04-28T07:49:24.003Z,6.00
2023-04-28T07:51:53.772Z,6.23
2023-04-28T07:54:20.385Z,6.10
2023-04-28T07:56:47.549Z,5.90
2023-04-28T07:59:14.458Z,5.93
2023-04-28T08:01:42.481Z,6.90
2023-04-28T08:04:09.677Z,6.30
2023-04-28T08:06:36.716Z,6.80
2023-04-28T08:09:05.752Z,6.30
2023-04-28T08:11:32.322Z,6.67
2023-04-28T08:14:02.281Z,6.27
2023-04-28T08:16:29.465Z,6.77
2023-04-28T08:18:56.051Z,6.10
2023-04-28T08:21:22.792Z,6.00
2023-04-28T08:23:49.284Z,6.07
2023-04-28T08:26:15.889Z,7.00
2023-04-28T08:28:42.374Z,6.23
2023-04-28T08:31:09.215Z,6.37
2023-04-28T08:33:35.737Z,6.13
2023-04-28T08:36:02.295Z,6.73
2023-04-28T08:38:28.836Z,6.77
2023-04-28T08:40:55.367Z,6.43
2023-04-28T08:43:22.397Z,6.33
2023-04-28T08:45:49.465Z,7.07
2023-04-28T08:48:22.859Z,6.40
2023-04-28T08:50:50.859Z,6.43
2023-04-28T08:53:27.073Z,6.93
2023-04-28T08:55:57.431Z,7.27
2023-04-28T08:58:25.037Z,6.10
2023-04-28T09:00:52.328Z,6.80
2023-04-28T09:03:19.254Z,7.40
2023-04-28T09:05:46.398Z,7.20
2023-04-28T09:08:13.395Z,7.83
2023-04-28T09:10:40.040Z,7.73
2023-04-28T09:13:06.944Z,7.97
2023-04-28T09:15:34.801Z,9.13
2023-04-28T09:18:01.949Z,9.13
2023-04-28T09:20:29.448Z,8.80
2023-04-28T09:22:56.922Z,7.90
2023-04-28T09:25:23.816Z,9.37
2023-04-28T09:27:50.648Z,8.97
2023-04-28T09:30:17.249Z,8.60
2023-04-28T09:32:44.049Z,8.97
2023-04-28T09:35:10.798Z,8.63
2023-04-28T09:37:37.805Z,9.03
2023-04-28T09:40:08.957Z,9.00
2023-04-28T09:42:38.511Z,9.23
2023-04-28T09:45:09.819Z,9.60
2023-04-28T09:47:38.197Z,9.97
2023-04-28T09:50:06.528Z,9.27
2023-04-28T09:52:33.750Z,9.23
2023-04-28T09:55:01.439Z,8.53
2023-04-28T09:57:30.368Z,9.07
2023-04-28T09:59:58.105Z,8.80
2023-04-28T10:02:42.824Z,9.10
2023-04-28T10:05:11.150Z,8.30
2023-04-28T10:07:39.367Z,9.90
2023-04-28T10:10:07.072Z,10.07
2023-04-28T10:12:35.041Z,10.03
2023-04-28T10:15:02.034Z,9.90
2023-04-28T10:17:31.286Z,9.73
2023-04-28T10:20:00.612Z,10.80
2023-04-28T10:22:29.945Z,9.87
2023-04-28T10:24:56.456Z,10.67
2023-04-28T10:27:29.808Z,10.60
2023-04-28T10:30:22.782Z,10.43
2023-04-28T10:33:16.262Z,10.17
2023-04-28T10:35:44.479Z,9.83
2023-04-28T10:38:15.047Z,11.30
2023-04-28T10:40:42.559Z,10.90
2023-04-28T10:43:10.197Z,10.87
2023-04-28T10:45:49.188Z,11.20
2023-04-28T10:48:16.519Z,9.47
2023-04-28T10:51:01.589Z,11.23
2023-04-28T10:53:49.816Z,12.30
2023-04-28T10:56:19.646Z,11.90
2023-04-28T10:58:46.976Z,13.63
2023-04-28T11:01:19.628Z,13.63
2023-04-28T11:03:51.138Z,13.40
2023-04-28T11:06:23.975Z,12.80
2023-04-28T11:08:50.689Z,13.67
2023-04-28T11:11:18.718Z,16.30
2023-04-28T11:13:47.247Z,15.50
2023-04-28T11:16:21.254Z,15.40
2023-04-28T11:19:08.389Z,15.53
2023-04-28T11:21:37.432Z,14.67
2023-04-28T11:24:08.631Z,14.83
2023-04-28T11:26:37.392Z,14.90
2023-04-28T11:29:03.997Z,15.53
2023-04-28T11:31:30.514Z,15.33
2023-04-28T11:33:58.884Z,15.80
2023-04-28T11:36:32.987Z,16.03
2023-04-28T11:39:00.189Z,16.40
2023-04-28T11:41:26.732Z,16.47
2023-04-28T11:43:53.373Z,16.73
2023-04-28T11:46:24.049Z,14.77
2023-04-28T11:49:00.500Z,16.50
2023-04-28T11:51:29.868Z,16.70
2023-04-28T11:53:56.395Z,18.47
2023-04-28T11:56:22.889Z,19.03
2023-04-28T11:59:06.043Z,18.37
2023-04-28T12:01:33.189Z,18.93
2023-04-28T12:04:02.103Z,18.63
2023-04-28T12:06:28.688Z,19.27
2023-04-28T12:08:55.726Z,17.20
2023-04-28T12:11:22.802Z,18.13
2023-04-28T12:14:06.174Z,15.73
2023-04-28T12:16:40.181Z,14.40
2023-04-28T12:19:10.486Z,13.53
2023-04-28T12:21:38.796Z,13.37
2023-04-28T12:24:21.660Z,11.97
2023-04-28T12:26:48.964Z,11.07
2023-04-28T12:29:34.671Z,9.93
2023-04-28T12:32:01.159Z,9.93
2023-04-28T12:34:29.598Z,10.60
2023-04-28T12:36:56.169Z,10.97
2023-04-28T12:39:23.241Z,11.60
2023-04-28T12:41:49.715Z,11.03
2023-04-28T12:44:16.489Z,10.70
2023-04-28T12:46:43.054Z,10.77
2023-04-28T12:49:09.644Z,10.43
2023-04-28T12:51:38.508Z,10.20
2023-04-28T12:54:05.604Z,10.80
2023-04-28T12:56:32.101Z,11.17
2023-04-28T12:58:58.985Z,10.33
2023-04-28T13:01:25.579Z,9.10
2023-04-28T13:03:54.656Z,8.67
2023-04-28T13:06:21.379Z,7.90
2023-04-28T13:08:48.007Z,9.30
2023-04-28T13:11:22.758Z,9.30
2023-04-28T13:13:49.654Z,8.83
2023-04-28T13:16:16.171Z,9.13
2023-04-28T13:18:42.696Z,9.20
2023-04-28T13:21:09.187Z,8.67
2023-04-28T13:23:35.665Z,8.73
2023-04-28T13:26:02.191Z,8.60
2023-04-28T13:28:30.139Z,8.50
2023-04-28T13:30:56.662Z,9.00
2023-04-28T13:33:23.309Z,8.53
2023-04-28T13:35:50.059Z,7.37
2023-04-28T13:38:16.755Z,8.20
2023-04-28T13:40:43.396Z,9.70
2023-04-28T13:43:09.955Z,9.33
2023-04-28T13:45:36.625Z,8.40
2023-04-28T13:48:04.158Z,7.80
2023-04-28T13:50:30.754Z,7.37
2023-04-28T13:52:57.406Z,7.23
2023-04-28T13:55:27.912Z,6.97
2023-04-28T13:57:55.928Z,6.93
2023-04-28T14:00:24.844Z,6.43
2023-04-28T14:02:52.036Z,6.77
2023-04-28T14:05:18.665Z,6.30
2023-04-28T14:07:46.188Z,5.67
2023-04-28T14:10:12.718Z,6.60
2023-04-28T14:12:39.237Z,5.90
2023-04-28T14:15:06.296Z,5.20
2023-04-28T14:17:34.568Z,5.23
2023-04-28T14:20:02.064Z,5.90
2023-04-28T14:22:28.883Z,7.00
2023-04-28T14:24:55.688Z,6.73
2023-04-28T14:27:22.503Z,6.47
2023-04-28T14:29:49.304Z,7.90
2023-04-28T14:32:21.457Z,5.00
2023-04-28T14:34:49.972Z,4.53
2023-04-28T14:37:17.811Z,4.60
2023-04-28T14:39:44.590Z,4.10
2023-04-28T14:42:12.001Z,3.83
2023-04-28T14:44:38.788Z,3.10
2023-04-28T14:47:05.281Z,3.47
2023-04-28T14:49:32.192Z,4.60
2023-04-28T14:52:00.141Z,3.63
2023-04-28T14:54:26.622Z,5.60
2023-04-28T14:56:55.908Z,4.57
2023-04-28T14:59:23.038Z,3.40
2023-04-28T15:01:51.747Z,3.33
2023-04-28T15:04:18.459Z,3.60
2023-04-28T15:06:45.249Z,3.80
2023-04-28T15:09:11.899Z,3.43
2023-04-28T15:11:38.401Z,3.53
2023-04-28T15:14:05.239Z,4.70
2023-04-28T15:16:31.798Z,4.33
2023-04-28T15:18:59.267Z,5.40
2023-04-28T15:21:25.761Z,6.60
2023-04-28T15:23:52.239Z,6.67
2023-04-28T15:26:21.605Z,6.93
2023-04-28T15:28:48.171Z,7.47
2023-04-28T15:31:14.701Z,8.30
2023-04-28T15:33:41.471Z,7.57
2023-04-28T15:36:08.505Z,7.13
2023-04-28T15:38:35.095Z,8.17
2023-04-28T15:41:01.648Z,9.07
2023-04-28T15:43:28.726Z,7.03
2023-04-28T15:45:55.313Z,6.23
2023-04-28T15:48:23.375Z,5.13
2023-04-28T15:50:50.600Z,4.70
2023-04-28T15:53:17.543Z,4.90
2023-04-28T15:55:44.453Z,4.37
2023-04-28T15:58:11.128Z,4.00
2023-04-28T16:00:37.933Z,5.07
2023-04-28T16:03:05.009Z,6.83
2023-04-28T16:05:32.076Z,10.57
2023-04-28T16:07:58.672Z,9.87
2023-04-28T16:10:25.252Z,7.87
2023-04-28T16:12:54.230Z,9.77
2023-04-28T16:15:21.280Z,6.63
2023-04-28T16:17:49.216Z,4.97
2023-04-28T16:20:15.907Z,9.27
2023-04-28T16:22:42.585Z,6.80
2023-04-28T16:25:09.446Z,6.50
2023-04-28T16:27:36.437Z,10.47
2023-04-28T16:30:05.114Z,10.97
2023-04-28T16:32:33.650Z,6.43
2023-04-28T16:35:00.334Z,7.00
2023-04-28T16:37:26.849Z,9.87
2023-04-28T16:39:53.308Z,10.87
2023-04-28T16:42:22.366Z,9.20
2023-04-28T16:44:52.286Z,8.77
2023-04-28T16:47:19.442Z,7.87
2023-04-28T16:49:46.152Z,10.90
2023-04-28T16:52:12.949Z,11.93
2023-04-28T16:54:39.414Z,11.03
2023-04-28T16:57:06.285Z,8.10
2023-04-28T16:59:34.111Z,7.10
2023-04-28T17:02:02.210Z,6.37
2023-04-28T17:04:28.936Z,7.23
2023-04-28T17:06:55.814Z,7.03
2023-04-28T17:09:22.767Z,6.83
2023-04-28T17:11:49.799Z,6.53
2023-04-28T17:14:16.357Z,6.57
2023-04-28T17:16:45.732Z,6.37
2023-04-28T17:19:12.712Z,7.73
2023-04-28T17:21:39.241Z,7.03
2023-04-28T17:24:05.922Z,7.83
2023-04-28T17:26:32.609Z,7.77
2023-04-28T17:29:00.058Z,7.67
2023-04-28T17:31:27.383Z,7.97
2023-04-28T17:33:54.857Z,7.93
2023-04-28T17:36:23.410Z,7.80
2023-04-28T17:38:52.907Z,8.73
2023-04-28T17:41:23.252Z,8.73
2023-04-28T17:43:51.867Z,8.87
2023-04-28T17:46:18.648Z,8.67
2023-04-28T17:48:45.273Z,8.17
2023-04-28T17:51:11.756Z,8.43
2023-04-28T17:53:39.064Z,8.43
2023-04-28T17:56:05.948Z,7.20
2023-04-28T17:58:33.996Z,8.50
2023-04-28T18:01:04.036Z,8.37
2023-04-28T18:03:31.097Z,8.03
2023-04-28T18:05:57.698Z,8.70
2023-04-28T18:08:24.263Z,7.60
2023-04-28T18:10:50.978Z,7.23
2023-04-28T18:13:17.674Z,6.87
2023-04-28T18:15:44.879Z,6.73
2023-04-28T18:18:11.433Z,6.23
2023-04-28T18:20:37.970Z,6.77
2023-04-28T18:23:04.772Z,6.73
2023-04-28T18:25:32.449Z,7.10
2023-04-28T18:27:59.099Z,6.17
2023-04-28T18:30:25.806Z,6.70
2023-04-28T18:32:52.435Z,6.67
2023-04-28T18:35:19.084Z,6.23
2023-04-28T18:37:45.809Z,5.93
2023-04-28T18:40:12.368Z,6.27
2023-04-28T18:42:38.879Z,5.73
2023-04-28T18:45:06.546Z,5.93
2023-04-28T18:47:33.074Z,6.07
2023-04-28T18:50:00.195Z,5.90
2023-04-28T18:52:26.869Z,6.67
2023-04-28T18:54:53.397Z,6.50
2023-04-28T18:57:19.902Z,5.93
2023-04-28T18:59:46.618Z,7.37
2023-04-28T19:02:13.186Z,6.83
2023-04-28T19:04:42.214Z,7.43
2023-04-28T19:07:08.917Z,7.43
2023-04-28T19:09:35.495Z,7.20
2023-04-28T19:12:01.969Z,7.33
2023-04-28T19:14:30.815Z,7.33
2023-04-28T19:16:57.368Z,8.90
2023-04-28T19:19:23.983Z,7.80
2023-04-28T19:21:50.936Z,8.37
2023-04-28T19:24:17.408Z,9.33
2023-04-28T19:26:43.979Z,9.30
2023-04-28T19:29:11.983Z,9.03
2023-04-28T19:31:38.475Z,8.33
2023-04-28T19:34:04.963Z,8.27
2023-04-28T19:36:32.961Z,8.33
2023-04-28T19:39:02.606Z,8.20
2023-04-28T19:41:29.255Z,8.53
2023-04-28T19:43:55.722Z,9.57
2023-04-28T19:46:22.369Z,9.07
2023-04-28T19:48:49.233Z,9.83
2023-04-28T19:51:16.999Z,9.90
2023-04-28T19:53:46.463Z,9.00
2023-04-28T19:56:13.080Z,9.17
2023-04-28T19:58:41.162Z,9.70
2023-04-28T20:01:07.952Z,9.43
2023-04-28T20:03:35.071Z,9.03
2023-04-28T20:06:01.695Z,9.27
2023-04-28T20:08:28.523Z,9.57
2023-04-28T20:10:55.256Z,9.50
2023-04-28T20:13:21.724Z,9.50
2023-04-28T20:15:48.271Z,10.40
2023-04-28T20:18:14.904Z,10.80
2023-04-28T20:20:41.446Z,10.30
2023-04-28T20:23:07.949Z,10.97
2023-04-28T20:25:37.580Z,10.37
2023-04-28T20:28:07.833Z,11.37
2023-04-28T20:30:36.954Z,10.90
2023-04-28T20:33:03.789Z,11.07
2023-04-28T20:35:30.369Z,11.00
2023-04-28T20:37:57.876Z,10.33
2023-04-28T20:40:24.588Z,10.20
2023-04-28T20:42:53.858Z,11.20
2023-04-28T20:45:20.429Z,11.40
2023-04-28T20:47:49.275Z,10.67
2023-04-28T20:50:15.873Z,11.77
2023-04-28T20:52:42.562Z,11.33
2023-04-28T20:55:09.713Z,10.43
2023-04-28T20:57:36.315Z,10.60
2023-04-28T21:00:04.105Z,10.33
2023-04-28T21:02:30.907Z,11.33
2023-04-28T21:04:57.454Z,12.53
2023-04-28T21:07:24.075Z,11.83
2023-04-28T21:09:51.589Z,11.67
2023-04-28T21:12:18.348Z,11.67
2023-04-28T21:14:45.349Z,13.07
2023-04-28T21:17:11.933Z,12.40
2023-04-28T21:19:38.465Z,12.90
2023-04-28T21:22:04.994Z,13.17
2023-04-28T21:24:31.490Z,12.43
2023-04-28T21:26:59.759Z,12.70
2023-04-28T21:29:27.662Z,12.80
2023-04-28T21:31:54.642Z,12.07
2023-04-28T21:34:21.169Z,12.83
2023-04-28T21:36:47.762Z,12.40
2023-04-28T21:39:14.670Z,13.10
2023-04-28T21:41:41.223Z,12.30
2023-04-28T21:44:07.834Z,12.73
2023-04-28T21:46:34.539Z,13.17
2023-04-28T21:49:01.135Z,12.93
2023-04-28T21:51:27.902Z,13.10
2023-04-28T21:53:54.584Z,12.30
2023-04-28T21:56:21.353Z,12.80
2023-04-28T21:58:47.884Z,12.97
2023-04-28T22:01:18.358Z,11.90
2023-04-28T22:03:45.763Z,12.37
2023-04-28T22:06:13.534Z,14.20
2023-04-28T22:08:40.111Z,14.37
2023-04-28T22:11:09.834Z,12.87
2023-04-28T22:13:36.347Z,13.47
2023-04-28T22:16:02.961Z,14.13
2023-04-28T22:18:29.586Z,13.53
2023-04-28T22:20:56.584Z,14.23
2023-04-28T22:23:23.207Z,13.90
2023-04-28T22:25:50.241Z,15.80
2023-04-28T22:28:16.898Z,15.50
2023-04-28T22:30:44.761Z,16.00
2023-04-28T22:33:11.298Z,15.40
2023-04-28T22:35:40.798Z,15.60
2023-04-28T22:38:08.076Z,16.27
2023-04-28T22:40:34.648Z,16.40
2023-04-28T22:43:01.165Z,16.67
2023-04-28T22:45:29.159Z,16.80
2023-04-28T22:47:56.486Z,18.73
2023-04-28T22:50:23.520Z,19.77
2023-04-28T22:52:52.424Z,19.73
2023-04-28T22:55:19.597Z,20.67
2023-04-28T22:57:46.215Z,21.17
2023-04-28T23:00:13.011Z,20.87
2023-04-28T23:02:42.500Z,22.50
2023-04-28T23:05:09.309Z,23.43
2023-04-28T23:07:36.140Z,23.27
2023-04-28T23:10:03.201Z,24.67
2023-04-28T23:12:29.684Z,25.27
2023-04-28T23:14:56.617Z,25.37
2023-04-28T23:17:23.138Z,24.73
2023-04-28T23:19:49.898Z,25.50
2023-04-28T23:22:16.593Z,24.83
2023-04-28T23:24:43.234Z,26.30
2023-04-28T23:27:09.739Z,27.00
2023-04-28T23:29:36.309Z,25.27
2023-04-28T23:32:03.087Z,25.80
2023-04-28T23:34:31.265Z,26.00
2023-04-28T23:36:58.695Z,26.07
2023-04-28T23:39:25.740Z,27.30
2023-04-28T23:41:52.308Z,26.70
2023-04-28T23:44:18.893Z,26.20
2023-04-28T23:46:45.416Z,25.93
2023-04-28T23:49:12.769Z,26.40
2023-04-28T23:51:41.069Z,27.57
2023-04-28T23:54:08.539Z,25.43
2023-04-28T23:56:35.164Z,25.33
2023-04-28T23:59:01.834Z,24.90
